Pagina principale
METAR-TAF:

METAR-TAF

Aeroporti :

Aeroporto Internazionale delle Seychelles

Victoria, Mahé, Seychelles

latitudine: 04-40S, longitudine: 055-31E, altezza: 3 m

Osservazione

Il bollettino è stato emesso 56 minuti fa, alle 14:00 UTC
Vento 6 kt da sud, variando fra sud-est e ovest
Temperature 28°C
Umidità 74%
Pressione 1009 hPa
Visibilità 10 km o più
Nubi sparse ad un'altezza di 2200 ft

METAR: FSIA 211400Z 18006KT 130V260 9999 R13///// SCT022 28/23 Q1009 NOSIG

Ora: 18:56 (14:56 UTC)

Previsione

Il bollettino è stato emesso 3 ore e 55 minuti fa, alle 11:01 UTC
Previsione valida dal 21 alle 12 UTC al 22 alle 12 UTC
Vento 15 kt da sud-est
Visibilità 10 km o più
Nubi sparse ad un'altezza di 2200 ft

TAF: FSIA 211101Z 2112/2212 13015KT 9999 SCT022

Osservazioni e previsioni meteorologiche di più di 4000 aeroporti (messaggi METAR e TAF).

Le stazioni disponibili sono rappresentate dai dischi gialli e rossi sulla carta.

Puntare il mouse per vedere il nome della stazione.

Clicca sopra per visualizzare le osservazioni e previsioni meteorologiche.

Per cambiare la mappa : fare clic sui pulsanti verdi con una croce nera per ingrandire, il pulsante verde con un trattino per diminuire, o sulla freccia verde per le mappe adiacenti.


METAR-TAF: